Terminal Aerodrome Forecast
Issued by NWS

Home | Current Version | Previous Version | Text Only | Print | Product List | Glossary On
Versions: 1 2 3 4 5 6 7 8 9 10 11 12 13
000
FTUS45 KTFX 192334
TAFBZN
TAF
KBZN 192334Z 2000/2106 24011KT P6SM SCT150
     FM201700 24013G21KT P6SM SCT045 BKN100 PROB30 2018/2021 -SHRA
      SCT025 BKN040
     FM202100 28015G25KT P6SM -SHRA SCT015 OVC035=

USA.gov is the U.S. government's official web portal to all federal, state and local government web resources and services.